createdAt,value
2023-03-17T00:01:15.794Z,146.1
2023-03-17T00:06:15.403Z,124.1
2023-03-17T00:11:15.093Z,311.5
2023-03-17T00:16:14.815Z,211.1
2023-03-17T00:21:14.469Z,273.1
2023-03-17T00:26:14.065Z,141.5
2023-03-17T00:31:13.793Z,98.3
2023-03-17T00:36:13.372Z,59.6
2023-03-17T00:41:13.072Z,198.9
2023-03-17T00:46:12.786Z,74.7
2023-03-17T00:51:12.445Z,74.7
2023-03-17T00:56:11.994Z,15.8
2023-03-17T01:01:14.304Z,18.7
2023-03-17T01:06:11.424Z,11.1
2023-03-17T01:11:11.034Z,11.1
2023-03-17T01:16:10.575Z,8.1
2023-03-17T01:21:10.176Z,12.5
2023-03-17T01:26:09.788Z,4.2
2023-03-17T01:31:09.672Z,10.9
2023-03-17T01:36:09.147Z,10.6
2023-03-17T01:41:09.015Z,12.0
2023-03-17T01:46:08.480Z,4.2
2023-03-17T01:51:08.165Z,4.9
2023-03-17T01:56:07.743Z,11.4
2023-03-17T02:01:07.567Z,9.4
2023-03-17T02:06:07.065Z,3.5
2023-03-17T02:16:06.403Z,4.8
2023-03-17T02:21:08.205Z,3.4
2023-03-17T02:26:05.668Z,2.1
2023-03-17T02:31:05.306Z,2.1
2023-03-17T02:36:04.925Z,1.7
2023-03-17T02:41:04.494Z,4.9
2023-03-17T02:46:04.266Z,5.0
2023-03-17T02:51:03.761Z,1.3
2023-03-17T02:56:03.377Z,2.2
2023-03-17T03:01:03.029Z,1.8
2023-03-17T03:11:02.238Z,1.9
2023-03-17T03:16:01.917Z,1.9
2023-03-17T03:21:01.580Z,2.0
2023-03-17T03:26:01.140Z,2.1
2023-03-17T03:31:00.805Z,3.7
2023-03-17T03:36:00.431Z,0.7
2023-03-17T03:40:59.989Z,1.2
2023-03-17T03:45:59.661Z,1.4
2023-03-17T03:50:59.272Z,1.4
2023-03-17T03:55:58.837Z,0.8
2023-03-17T04:05:58.036Z,1.5
2023-03-17T04:10:57.649Z,1.9
2023-03-17T04:15:57.547Z,1.0
2023-03-17T04:20:57.177Z,1.5
2023-03-17T04:25:56.982Z,1.5
2023-03-17T04:35:55.900Z,0.5
2023-03-17T04:40:55.458Z,4.6
2023-03-17T04:45:55.169Z,1.9
2023-03-17T04:50:54.719Z,0.7
2023-03-17T05:00:53.989Z,2.1
2023-03-17T05:05:53.508Z,0.8
2023-03-17T05:10:53.185Z,1.2
2023-03-17T05:35:50.959Z,2.9
2023-03-17T05:40:50.519Z,3.5
2023-03-17T05:45:50.158Z,7.6
2023-03-17T05:50:49.698Z,2.2
2023-03-17T05:55:49.291Z,2.8
2023-03-17T06:00:50.964Z,2.4
2023-03-17T06:05:48.512Z,0.8
2023-03-17T06:15:47.713Z,2.3
2023-03-17T06:25:46.689Z,1.4
2023-03-17T06:30:46.264Z,1.3
2023-03-17T06:35:45.806Z,1.4
2023-03-17T06:40:45.343Z,2.2
2023-03-17T06:45:44.937Z,5.9
2023-03-17T06:50:44.435Z,3.5
2023-03-17T06:55:44.018Z,1.5
2023-03-17T07:00:45.669Z,4.7
2023-03-17T07:05:43.190Z,0.9
2023-03-17T07:10:42.810Z,4.8
2023-03-17T07:15:42.368Z,6.2
2023-03-17T07:20:44.335Z,5.0
2023-03-17T07:25:41.404Z,1.1
2023-03-17T07:30:41.390Z,3.5
2023-03-17T07:35:40.732Z,2.6
2023-03-17T07:40:40.286Z,5.1
2023-03-17T07:50:39.439Z,1.5
2023-03-17T07:55:39.077Z,3.1
2023-03-17T08:00:38.674Z,4.0
2023-03-17T08:05:39.254Z,4.1
2023-03-17T08:10:37.799Z,1.7
2023-03-17T08:15:37.647Z,4.0
2023-03-17T08:30:36.820Z,1.2
2023-03-17T08:35:36.010Z,5.4
2023-03-17T08:40:35.663Z,5.9
2023-03-17T08:50:37.482Z,4.4
2023-03-17T08:55:34.578Z,5.8
2023-03-17T09:00:34.643Z,2.2
2023-03-17T09:15:33.450Z,6.5
2023-03-17T09:20:33.194Z,1.8
2023-03-17T09:25:32.304Z,4.0
2023-03-17T09:30:32.280Z,3.2
2023-03-17T09:35:31.936Z,5.2
2023-03-17T09:40:33.516Z,1.7
2023-03-17T09:45:30.853Z,4.1
2023-03-17T09:50:30.658Z,4.7
2023-03-17T09:55:30.515Z,1.1
2023-03-17T10:05:29.972Z,4.4
2023-03-17T10:10:29.650Z,1.1
2023-03-17T10:15:28.820Z,8.5
2023-03-17T10:20:28.516Z,2.0
2023-03-17T10:25:28.236Z,2.4
2023-03-17T10:30:27.922Z,10.3
2023-03-17T10:35:27.629Z,2.5
2023-03-17T10:40:27.339Z,1.5
2023-03-17T10:45:29.538Z,1.0
2023-03-17T10:50:26.719Z,2.0
2023-03-17T10:55:26.445Z,4.5
2023-03-17T11:05:25.919Z,2.1
2023-03-17T11:10:25.626Z,1.5
2023-03-17T11:30:24.570Z,2.5
2023-03-17T11:35:24.330Z,5.6
2023-03-17T11:40:24.440Z,5.6
2023-03-17T11:45:23.928Z,3.9
2023-03-17T11:55:23.784Z,1.5
2023-03-17T12:00:23.608Z,1.8
2023-03-17T12:10:23.402Z,2.5
2023-03-17T12:15:23.249Z,3.7
2023-03-17T12:20:23.215Z,3.1
2023-03-17T12:25:23.174Z,1.3
2023-03-17T12:30:23.185Z,3.4
2023-03-17T12:35:23.140Z,5.5
2023-03-17T12:40:25.179Z,2.3
2023-03-17T12:45:23.296Z,6.5
2023-03-17T12:55:25.852Z,1.9
2023-03-17T13:00:23.403Z,3.7
2023-03-17T13:15:25.504Z,7.4
2023-03-17T13:20:23.557Z,4.1
2023-03-17T13:25:25.685Z,4.9
2023-03-17T13:30:25.808Z,4.9
2023-03-17T13:35:23.952Z,2.8
2023-03-17T13:40:26.037Z,1.5
2023-03-17T13:45:24.082Z,1.3
2023-03-17T13:50:24.214Z,4.4
2023-03-17T14:00:24.467Z,3.6
2023-03-17T14:05:26.924Z,2.6
2023-03-17T14:10:24.342Z,3.3
2023-03-17T14:15:24.381Z,3.3
2023-03-17T14:20:24.348Z,4.4
2023-03-17T14:25:24.473Z,2.5
2023-03-17T14:30:24.522Z,4.2
2023-03-17T14:35:26.564Z,4.2
2023-03-17T14:40:24.617Z,1.5
2023-03-17T14:45:24.521Z,4.5
2023-03-17T14:50:24.639Z,5.1
2023-03-17T14:55:24.485Z,4.5
2023-03-17T15:00:24.523Z,4.5
2023-03-17T15:05:26.532Z,4.7
2023-03-17T15:10:24.503Z,6.6
2023-03-17T15:15:24.421Z,6.0
2023-03-17T15:20:24.465Z,2.4
2023-03-17T15:25:24.290Z,2.4
2023-03-17T15:30:24.806Z,2.6
2023-03-17T15:35:24.234Z,5.2
2023-03-17T15:40:24.329Z,5.2
2023-03-17T15:45:24.106Z,4.7
2023-03-17T15:50:24.175Z,4.7
2023-03-17T15:55:23.913Z,3.6
2023-03-17T16:05:23.866Z,5.6
2023-03-17T16:10:23.596Z,3.4
2023-03-17T16:15:23.893Z,9.3
2023-03-17T16:20:23.325Z,5.1
2023-03-17T16:30:23.038Z,5.5
2023-03-17T16:35:22.843Z,3.1
2023-03-17T16:40:22.772Z,5.5
2023-03-17T16:45:22.556Z,3.7
2023-03-17T16:50:22.440Z,5.0
2023-03-17T16:55:22.234Z,3.5
2023-03-17T17:00:22.086Z,4.2
2023-03-17T17:10:24.048Z,4.2
2023-03-17T17:15:21.479Z,3.6
2023-03-17T17:20:21.395Z,9.9
2023-03-17T17:25:21.060Z,8.8
2023-03-17T17:35:22.551Z,0.8
2023-03-17T17:40:20.243Z,6.4
2023-03-17T17:50:19.729Z,3.5
2023-03-17T17:55:19.488Z,6.4
2023-03-17T18:00:19.216Z,6.4
2023-03-17T18:05:18.946Z,4.6
2023-03-17T18:10:18.715Z,4.6
2023-03-17T18:15:18.369Z,2.8
2023-03-17T18:20:18.098Z,7.8
2023-03-17T18:25:17.854Z,4.9
2023-03-17T18:30:17.584Z,5.2
2023-03-17T18:35:17.296Z,3.3
2023-03-17T18:40:18.958Z,4.2
2023-03-17T18:45:16.710Z,5.0
2023-03-17T18:50:16.509Z,8.0
2023-03-17T18:55:16.162Z,3.2
2023-03-17T19:05:15.771Z,1.4
2023-03-17T19:10:15.373Z,5.4
2023-03-17T19:15:15.013Z,4.2
2023-03-17T19:20:14.894Z,4.2
2023-03-17T19:25:14.424Z,4.3
2023-03-17T19:30:14.233Z,11.1
2023-03-17T19:35:13.799Z,5.4
2023-03-17T19:40:13.533Z,3.2
2023-03-17T19:45:13.154Z,3.6
2023-03-17T19:50:12.899Z,5.2
2023-03-17T19:55:12.539Z,3.7
2023-03-17T20:00:12.245Z,3.0
2023-03-17T20:05:11.900Z,3.9
2023-03-17T20:10:11.574Z,2.8
2023-03-17T20:20:10.925Z,3.3
2023-03-17T20:25:10.624Z,5.0
2023-03-17T20:30:10.286Z,4.5
2023-03-17T20:35:09.930Z,1.7
2023-03-17T20:45:09.244Z,5.2
2023-03-17T21:00:08.111Z,2.0
2023-03-17T21:05:07.713Z,4.1
2023-03-17T21:10:07.284Z,1.5
2023-03-17T21:15:06.855Z,2.1
2023-03-17T21:20:06.498Z,2.1
2023-03-17T21:30:05.797Z,1.4
2023-03-17T21:40:05.041Z,1.5
2023-03-17T21:45:04.558Z,0.9
2023-03-17T21:55:03.801Z,1.3
2023-03-17T22:00:03.260Z,1.7
2023-03-17T22:05:02.905Z,4.6
2023-03-17T22:10:02.584Z,1.8
2023-03-17T22:15:02.072Z,3.5
2023-03-17T22:20:04.003Z,2.8
2023-03-17T22:25:01.313Z,2.9
2023-03-17T22:30:03.103Z,5.6
2023-03-17T22:35:02.650Z,4.7
2023-03-17T22:40:00.269Z,3.1
2023-03-17T22:44:59.877Z,1.7
2023-03-17T22:49:59.473Z,6.4
2023-03-17T22:54:58.989Z,6.4
2023-03-17T22:59:58.605Z,3.7
2023-03-17T23:09:58.087Z,3.2
2023-03-17T23:14:57.519Z,3.7
2023-03-17T23:19:57.073Z,1.8
2023-03-17T23:24:56.622Z,1.8
2023-03-17T23:29:56.332Z,1.9
2023-03-17T23:34:55.818Z,4.1
2023-03-17T23:39:55.467Z,3.0
2023-03-17T23:44:55.040Z,5.2
2023-03-17T23:49:56.884Z,2.5
2023-03-17T23:54:54.226Z,4.2
2023-03-17T23:59:53.847Z,2.9
